Time;durP1;ratioP1;P1;durP2;ratioP2;P2;SDS_P1;SDS_P2;PMS_P1;PMS_P2;Temp;Humidity;BMP_temperature;BMP_pressure;BME280_temperature;BME280_humidity;BME280_pressure;Samples;Min_cycle;Max_cycle;Signal;HPM_P1;HPM_P2
2023/10/01 00:01:53;;;;;;;27.10;10.50;;;;;;;17.58;67.82;93703.59;2026102;70;20147;-75
2023/10/01 00:04:19;;;;;;;26.70;9.43;;;;;;;17.60;69.21;93695.91;2025620;70;20130;-75
2023/10/01 00:06:44;;;;;;;20.65;9.00;;;;;;;17.53;69.12;93705.50;2026097;70;20209;-74
2023/10/01 00:09:10;;;;;;;20.55;9.35;;;;;;;17.51;69.11;93694.03;2025835;70;20677;-74
2023/10/01 00:11:39;;;;;;;23.05;9.82;;;;;;;17.50;69.68;93689.69;2025789;70;20164;-75
2023/10/01 00:14:09;;;;;;;25.63;10.48;;;;;;;17.47;69.65;93686.00;2025949;70;20153;-73
2023/10/01 00:16:38;;;;;;;22.48;10.15;;;;;;;17.51;68.87;93694.75;2025488;71;20602;-75
2023/10/01 00:19:05;;;;;;;25.17;10.18;;;;;;;17.61;67.93;93696.66;2026011;70;20156;-73
2023/10/01 00:21:31;;;;;;;23.52;10.15;;;;;;;17.61;67.77;93702.34;2025453;71;20650;-73
2023/10/01 00:23:58;;;;;;;21.05;9.48;;;;;;;17.69;67.65;93697.78;2025919;70;20164;-74
2023/10/01 00:26:23;;;;;;;22.30;9.52;;;;;;;17.61;68.80;93688.84;2025559;70;20164;-74
2023/10/01 00:28:50;;;;;;;20.15;9.60;;;;;;;17.73;65.50;93691.53;2025671;70;20188;-74
2023/10/01 00:31:19;;;;;;;21.80;9.63;;;;;;;17.58;67.47;93700.75;2025442;71;20152;-74
2023/10/01 00:33:47;;;;;;;23.17;9.73;;;;;;;17.60;68.54;93695.16;2025871;70;20160;-74
2023/10/01 00:36:13;;;;;;;24.05;9.65;;;;;;;17.53;69.17;93689.16;2025799;70;20169;-74
2023/10/01 00:38:38;;;;;;;26.67;9.68;;;;;;;17.51;67.82;93677.66;2022753;71;20618;-74
2023/10/01 00:41:07;;;;;;;25.55;9.98;;;;;;;17.28;69.70;93683.59;2025909;70;20156;-76
2023/10/01 00:43:33;;;;;;;21.20;9.38;;;;;;;17.34;69.46;93680.31;2022588;71;20239;-73
2023/10/01 00:45:59;;;;;;;22.73;9.43;;;;;;;17.36;69.72;93681.16;2025091;71;20267;-74
2023/10/01 00:48:25;;;;;;;22.77;10.32;;;;;;;17.26;70.40;93684.22;2025868;70;20232;-77
2023/10/01 00:50:54;;;;;;;23.00;9.50;;;;;;;17.20;69.52;93683.19;2025388;70;20333;-75
2023/10/01 00:53:20;;;;;;;20.83;9.30;;;;;;;17.22;69.43;93680.41;2025347;70;20233;-75
2023/10/01 00:55:45;;;;;;;24.50;9.82;;;;;;;17.23;69.01;93687.63;2025404;70;20173;-75
2023/10/01 00:58:11;;;;;;;22.13;9.85;;;;;;;17.13;70.20;93689.91;2022518;71;20157;-74
2023/10/01 01:00:37;;;;;;;20.48;9.48;;;;;;;17.14;70.53;93692.13;2025296;71;20263;-73
2023/10/01 01:03:18;;;;;;;20.92;9.70;;;;;;;17.18;69.28;93691.59;2025608;70;20184;-74
2023/10/01 01:06:12;;;;;;;22.98;10.35;;;;;;;17.08;69.86;93680.41;2025069;71;20595;-73
2023/10/01 01:08:52;;;;;;;22.20;9.43;;;;;;;17.08;69.96;93683.28;2020796;71;20149;-74
2023/10/01 01:11:19;;;;;;;23.95;10.07;;;;;;;17.10;69.06;93686.22;2025870;70;20149;-74
2023/10/01 01:13:47;;;;;;;25.25;9.52;;;;;;;17.09;69.75;93678.31;2025596;71;20161;-73
2023/10/01 01:16:13;;;;;;;24.60;9.93;;;;;;;17.11;69.19;93684.84;2024994;70;20156;-73
2023/10/01 01:18:42;;;;;;;23.30;9.65;;;;;;;17.08;69.75;93682.53;2025422;71;20161;-72
2023/10/01 01:21:13;;;;;;;27.17;9.60;;;;;;;17.05;69.90;93678.13;2026836;70;20149;-73
2023/10/01 01:23:45;;;;;;;21.75;9.25;;;;;;;16.96;70.69;93680.53;2028676;70;20711;-72
2023/10/01 01:26:13;;;;;;;20.20;9.27;;;;;;;16.97;70.42;93676.31;2025544;70;20180;-72
2023/10/01 01:28:41;;;;;;;21.05;9.52;;;;;;;16.94;70.35;93682.53;2027918;70;20157;-73
2023/10/01 01:31:10;;;;;;;23.23;9.50;;;;;;;16.82;70.35;93671.25;2023065;71;20165;-73
2023/10/01 01:33:52;;;;;;;21.65;10.25;;;;;;;16.83;70.02;93669.88;2025465;70;20236;-75
2023/10/01 01:36:28;;;;;;;23.27;9.90;;;;;;;16.84;70.19;93674.19;2025928;70;20152;-73
2023/10/01 01:39:28;;;;;;;21.50;9.73;;;;;;;16.85;70.82;93672.81;2026195;70;20148;-74
2023/10/01 01:41:54;;;;;;;22.48;9.80;;;;;;;16.77;71.65;93680.94;2026261;70;20141;-73
2023/10/01 01:44:20;;;;;;;22.73;10.30;;;;;;;16.50;72.03;93679.50;2025361;71;20232;-74
2023/10/01 01:46:49;;;;;;;22.48;9.40;;;;;;;16.75;70.55;93686.50;2025193;70;20506;-74
2023/10/01 01:49:18;;;;;;;21.65;9.60;;;;;;;16.78;70.88;93685.25;2025728;71;20164;-76
2023/10/01 01:52:03;;;;;;;21.38;10.18;;;;;;;16.79;70.62;93695.25;2025084;71;20175;-76
2023/10/01 01:54:36;;;;;;;22.33;9.32;;;;;;;16.86;71.01;93690.63;2027315;70;20210;-75
2023/10/01 01:57:02;;;;;;;;;;;;;;;16.89;71.23;93692.22;2022879;71;20340;-74
2023/10/01 01:59:29;;;;;;;19.90;9.50;;;;;;;16.83;71.14;93691.91;2025954;70;20482;-75
2023/10/01 02:01:55;;;;;;;20.83;9.63;;;;;;;16.84;71.38;93691.25;2025278;70;20198;-74
2023/10/01 02:04:22;;;;;;;20.27;9.57;;;;;;;16.79;72.21;93698.09;2023844;71;20149;-74
2023/10/01 02:06:50;;;;;;;23.48;9.27;;;;;;;16.86;70.81;93694.22;2027899;70;20218;-75
2023/10/01 02:09:19;;;;;;;22.00;9.45;;;;;;;16.88;71.96;93704.97;2026352;70;20157;-76
2023/10/01 02:11:47;;;;;;;20.73;9.05;;;;;;;16.80;72.48;93696.00;2025769;70;20240;-74
2023/10/01 02:14:30;;;;;;;22.90;8.90;;;;;;;16.89;71.32;93690.09;2025586;70;20181;-74
2023/10/01 02:17:13;;;;;;;18.73;8.65;;;;;;;16.91;71.83;93689.50;2022381;71;20225;-74
2023/10/01 02:19:46;;;;;;;23.25;10.13;;;;;;;16.90;71.03;93673.78;2026127;71;20141;-74
2023/10/01 02:22:12;;;;;;;24.10;9.88;;;;;;;16.91;71.83;93680.97;2025434;71;20141;-74
2023/10/01 02:24:54;;;;;;;23.13;9.98;;;;;;;16.74;71.83;93682.19;2025641;71;20160;-74
2023/10/01 02:27:20;;;;;;;21.83;10.05;;;;;;;16.69;71.80;93683.31;2026307;70;20188;-74
2023/10/01 02:30:10;;;;;;;22.15;9.43;;;;;;;16.76;71.48;93682.28;2025709;71;20236;-74
2023/10/01 02:32:33;;;;;;;19.98;9.50;;;;;;;16.82;71.62;93682.63;2026144;71;20144;-74
2023/10/01 02:34:59;;;;;;;23.20;9.55;;;;;;;16.79;71.39;93686.00;2026291;70;20156;-74
2023/10/01 02:37:29;;;;;;;21.80;9.40;;;;;;;16.77;71.66;93686.63;2026058;71;20168;-74
2023/10/01 02:40:12;;;;;;;22.42;9.90;;;;;;;16.80;70.99;93676.81;2025748;71;20164;-74
2023/10/01 02:42:38;;;;;;;23.05;9.25;;;;;;;16.84;70.09;93679.16;2025912;71;20181;-74
2023/10/01 02:45:30;;;;;;;21.60;9.60;;;;;;;16.79;70.91;93683.16;2025996;70;20218;-73
2023/10/01 02:48:13;;;;;;;21.23;10.07;;;;;;;16.70;71.35;93682.69;2026108;70;20179;-73
2023/10/01 02:50:36;;;;;;;24.42;9.98;;;;;;;16.80;70.33;93684.63;2025407;71;20167;-73
2023/10/01 02:53:03;;;;;;;20.60;9.50;;;;;;;16.74;71.78;93690.72;2022626;71;20137;-73
2023/10/01 02:55:29;;;;;;;23.67;8.85;;;;;;;16.70;72.05;93682.69;2025504;71;20244;-74
2023/10/01 02:58:01;;;;;;;19.23;9.10;;;;;;;16.70;71.99;93681.94;2026346;70;20157;-73
2023/10/01 03:00:30;;;;;;;24.60;9.77;;;;;;;16.72;72.48;93688.53;2026529;70;20152;-73
2023/10/01 03:02:58;;;;;;;20.75;9.48;;;;;;;16.74;71.31;93685.78;2025768;71;20286;-74
2023/10/01 03:07:52;;;;;;;20.85;9.25;;;;;;;16.68;70.72;93687.53;2026584;70;20608;-74
2023/10/01 03:10:25;;;;;;;21.65;9.60;;;;;;;16.58;70.12;93682.00;2026595;70;20448;-74
2023/10/01 03:12:59;;;;;;;24.13;9.65;;;;;;;16.51;72.50;93697.28;2028277;70;20581;-75
2023/10/01 03:15:28;;;;;;;25.52;9.93;;;;;;;16.59;72.10;93700.56;2025776;70;20173;-74
2023/10/01 03:18:05;;;;;;;22.75;10.27;;;;;;;16.73;70.96;93694.94;2026700;70;20157;-73
2023/10/01 03:23:25;;;;;;;21.02;9.50;;;;;;;16.60;72.11;93701.31;2022530;71;20299;-76
2023/10/01 03:26:08;;;;;;;21.65;9.93;;;;;;;16.58;72.32;93686.97;2019723;71;20181;-75
2023/10/01 03:31:23;;;;;;;20.85;9.30;;;;;;;16.68;70.62;93696.06;2023484;71;20140;-74
2023/10/01 03:33:53;;;;;;;23.73;10.38;;;;;;;16.63;71.24;93695.09;2024130;70;20292;-75
2023/10/01 03:36:26;;;;;;;24.13;10.35;;;;;;;16.60;71.23;93696.34;2022522;71;20145;-74
2023/10/01 03:38:57;;;;;;;23.25;10.30;;;;;;;16.64;70.32;93695.84;2022438;71;20160;-74
2023/10/01 03:41:27;;;;;;;20.17;9.20;;;;;;;16.62;71.19;93699.28;2022536;71;20253;-75
2023/10/01 03:44:08;;;;;;;23.50;10.15;;;;;;;16.44;71.53;93699.03;2021974;71;20153;-74
2023/10/01 03:46:42;;;;;;;21.67;9.75;;;;;;;16.41;69.28;93693.88;2022174;71;20147;-74
2023/10/01 03:51:53;;;;;;;24.13;10.10;;;;;;;16.51;71.44;93703.69;2022240;71;20145;-74
2023/10/01 03:57:29;;;;;;;21.92;9.80;;;;;;;16.40;72.80;93706.59;2022033;71;20149;-74
2023/10/01 03:59:57;;;;;;;20.48;9.55;;;;;;;16.44;71.92;93699.03;2023636;71;20160;-73
2023/10/01 04:02:48;;;;;;;19.23;9.35;;;;;;;16.39;72.07;93697.34;2026262;70;20169;-74
2023/10/01 04:05:30;;;;;;;22.63;9.80;;;;;;;16.43;71.30;93711.03;2025919;71;20248;-74
2023/10/01 04:07:58;;;;;;;22.08;9.80;;;;;;;16.44;71.55;93703.97;2026479;71;20141;-74
2023/10/01 04:13:12;;;;;;;23.25;11.35;;;;;;;16.38;70.12;93709.34;2026154;70;20164;-74
2023/10/01 04:15:43;;;;;;;22.67;10.75;;;;;;;16.30;70.57;93706.03;2026117;71;20209;-73
2023/10/01 04:18:09;;;;;;;24.42;10.30;;;;;;;16.30;70.29;93703.19;2026386;70;20153;-74
2023/10/01 04:20:39;;;;;;;22.30;9.88;;;;;;;16.29;70.46;93691.09;2028661;70;20161;-74
2023/10/01 04:23:05;;;;;;;20.33;10.00;;;;;;;16.27;71.13;93691.00;2026677;70;20608;-74
2023/10/01 04:25:38;;;;;;;20.90;9.73;;;;;;;16.26;71.34;93692.34;2026541;70;20187;-73
2023/10/01 04:28:08;;;;;;;21.88;9.80;;;;;;;16.27;70.05;93694.56;2026274;70;20240;-73
2023/10/01 04:30:34;;;;;;;20.90;10.07;;;;;;;16.36;70.05;93697.88;2026437;70;20164;-73
2023/10/01 04:33:16;;;;;;;22.35;9.43;;;;;;;16.22;71.67;93700.66;2026525;70;20160;-73
2023/10/01 04:36:10;;;;;;;23.40;10.27;;;;;;;16.27;71.91;93699.53;2026454;71;20145;-73
2023/10/01 04:38:32;;;;;;;22.60;10.70;;;;;;;16.01;69.78;93713.72;2026208;71;20634;-74
2023/10/01 04:40:59;;;;;;;22.88;10.55;;;;;;;15.59;72.33;93703.47;2026408;70;20181;-73
2023/10/01 04:43:34;;;;;;;23.17;11.02;;;;;;;15.70;72.05;93714.06;2026286;70;20153;-73
2023/10/01 04:46:01;;;;;;;26.88;11.75;;;;;;;15.88;70.96;93708.69;2026526;70;20641;-73
2023/10/01 04:48:27;;;;;;;23.15;10.45;;;;;;;16.05;71.34;93721.72;2026127;70;20183;-72
2023/10/01 04:50:54;;;;;;;21.50;10.18;;;;;;;15.98;71.29;93723.47;2026160;70;20257;-72
2023/10/01 04:53:21;;;;;;;23.40;10.70;;;;;;;15.49;72.85;93726.31;2026361;70;20156;-74
2023/10/01 04:56:04;;;;;;;22.40;10.50;;;;;;;15.70;71.36;93731.09;2026401;70;20289;-74
2023/10/01 04:58:36;;;;;;;24.65;10.52;;;;;;;15.71;69.35;93731.81;2026363;70;20569;-73
2023/10/01 05:01:11;;;;;;;24.60;11.32;;;;;;;15.74;70.80;93727.75;2026271;70;20619;-73
2023/10/01 05:03:39;;;;;;;21.88;10.52;;;;;;;15.43;71.91;93731.63;2026242;70;20157;-75
2023/10/01 05:06:12;;;;;;;25.95;10.68;;;;;;;15.53;71.14;93728.63;2025623;71;20626;-73
2023/10/01 05:08:40;;;;;;;25.35;10.68;;;;;;;15.59;70.48;93723.34;2022442;71;20217;-72
2023/10/01 05:11:13;;;;;;;23.13;10.70;;;;;;;15.44;72.11;93727.44;2022209;71;20153;-75
2023/10/01 05:13:40;;;;;;;22.85;10.85;;;;;;;15.40;72.14;93730.03;2025186;71;20166;-74
2023/10/01 05:16:14;;;;;;;22.70;10.32;;;;;;;15.45;71.87;93734.59;2026102;70;20144;-74
2023/10/01 05:18:43;;;;;;;26.27;10.32;;;;;;;15.54;71.63;93740.75;2026018;70;20157;-73
2023/10/01 05:21:12;;;;;;;24.38;10.27;;;;;;;15.48;71.92;93732.59;2026098;70;20191;-73
2023/10/01 05:23:39;;;;;;;24.75;10.80;;;;;;;15.42;71.43;93718.06;2025983;70;20214;-73
2023/10/01 05:26:09;;;;;;;25.40;12.55;;;;;;;15.42;71.49;93735.81;2025751;70;20153;-73
2023/10/01 05:28:36;;;;;;;23.45;11.85;;;;;;;15.43;70.92;93728.03;2026155;70;20559;-74
2023/10/01 05:31:12;;;;;;;25.48;11.82;;;;;;;15.40;71.20;93732.88;2026271;70;20188;-73
2023/10/01 05:33:45;;;;;;;30.98;13.27;;;;;;;15.30;71.79;93732.25;2026305;70;20149;-75
2023/10/01 05:36:14;;;;;;;25.75;12.27;;;;;;;15.30;71.56;93729.41;2026436;70;20226;-74
2023/10/01 05:38:43;;;;;;;25.48;12.20;;;;;;;15.28;71.35;93731.41;2026345;70;20145;-75
2023/10/01 05:41:09;;;;;;;26.23;11.45;;;;;;;15.19;72.65;93738.69;2024936;71;20181;-73
2023/10/01 05:43:43;;;;;;;23.17;10.65;;;;;;;15.26;72.30;93732.03;2023062;70;20149;-74
2023/10/01 05:46:11;;;;;;;25.92;11.90;;;;;;;15.14;72.61;93748.31;2023274;71;20626;-74
2023/10/01 05:48:40;;;;;;;26.42;11.80;;;;;;;15.15;71.40;93749.78;2023697;71;20522;-74
2023/10/01 05:51:18;;;;;;;25.88;12.13;;;;;;;15.14;71.62;93754.72;2026401;70;20152;-74
2023/10/01 05:53:45;;;;;;;28.23;13.02;;;;;;;15.19;71.23;93756.44;2026179;70;20160;-74
2023/10/01 05:56:11;;;;;;;24.48;11.25;;;;;;;15.19;71.70;93762.09;2023176;71;20180;-74
2023/10/01 05:58:42;;;;;;;26.20;11.68;;;;;;;15.14;72.40;93760.38;2022957;71;20157;-75
2023/10/01 06:01:16;;;;;;;29.40;11.48;;;;;;;15.09;71.95;93752.25;2024973;70;20280;-78
2023/10/01 06:03:49;;;;;;;29.30;12.68;;;;;;;15.15;71.18;93770.38;2026449;70;20618;-75
2023/10/01 06:06:24;;;;;;;;;;;;;;;15.00;71.62;93768.03;2026000;71;20180;-74
2023/10/01 06:08:58;;;;;;;28.70;12.77;;;;;;;15.07;70.86;93761.34;2025459;71;20093;-74
2023/10/01 06:12:11;;;;;;;32.40;13.07;;;;;;;15.03;71.40;93771.72;2026208;70;20682;-74
2023/10/01 06:17:00;;;;;;;29.98;12.95;;;;;;;15.08;69.93;93767.78;2023603;71;20160;-74
2023/10/01 06:19:32;;;;;;;28.77;13.10;;;;;;;14.96;71.29;93765.69;2026271;70;20199;-73
2023/10/01 06:22:12;;;;;;;30.35;13.02;;;;;;;15.05;70.97;93769.75;2027862;70;20168;-73
2023/10/01 06:24:43;;;;;;;29.42;13.68;;;;;;;14.95;71.06;93771.97;2026204;70;20153;-76
2023/10/01 06:27:18;;;;;;;35.42;16.08;;;;;;;15.01;71.11;93772.34;2025379;71;20149;-75
2023/10/01 06:29:51;;;;;;;33.80;15.77;;;;;;;14.99;70.97;93775.81;2026328;71;20225;-75
2023/10/01 06:32:22;;;;;;;30.00;13.73;;;;;;;15.16;70.59;93780.34;2028956;70;20180;-76
2023/10/01 06:34:49;;;;;;;25.40;12.57;;;;;;;15.29;70.42;93784.69;2030825;70;20738;-76
2023/10/01 06:37:15;;;;;;;30.42;12.80;;;;;;;15.34;71.55;93783.56;2029989;70;20152;-76
2023/10/01 06:39:41;;;;;;;29.10;13.18;;;;;;;15.34;70.51;93771.47;2030459;70;20235;-74
2023/10/01 06:42:25;;;;;;;25.00;11.48;;;;;;;15.47;70.85;93776.53;2029933;70;20140;-74
2023/10/01 06:44:52;;;;;;;30.50;12.95;;;;;;;15.34;71.19;93772.22;2027476;70;20165;-76
2023/10/01 06:47:22;;;;;;;28.67;12.75;;;;;;;15.41;71.40;93774.06;2026802;71;20160;-76
2023/10/01 06:52:35;;;;;;;29.33;12.25;;;;;;;15.47;71.08;93773.69;2027430;70;20145;-75
2023/10/01 06:55:04;;;;;;;34.80;15.15;;;;;;;15.33;70.32;93773.56;2026438;70;20188;-73
2023/10/01 06:57:33;;;;;;;34.10;15.48;;;;;;;15.30;69.96;93768.38;2026625;70;20229;-74
2023/10/01 06:59:59;;;;;;;33.60;14.85;;;;;;;15.43;69.87;93776.28;2027297;70;20180;-75
2023/10/01 07:02:26;;;;;;;35.63;14.52;;;;;;;15.42;69.74;93786.16;2026849;70;20606;-73
2023/10/01 07:04:59;;;;;;;36.20;15.15;;;;;;;15.47;69.47;93785.78;2027371;70;20236;-74
2023/10/01 07:07:28;;;;;;;33.92;14.75;;;;;;;15.60;69.74;93789.34;2026989;71;20675;-75
2023/10/01 07:10:00;;;;;;;31.38;14.00;;;;;;;15.58;69.78;93783.53;2027274;70;20160;-74
2023/10/01 07:12:26;;;;;;;33.85;14.50;;;;;;;15.68;69.91;93787.75;2027253;70;20156;-74
2023/10/01 07:14:52;;;;;;;35.53;14.93;;;;;;;15.36;70.03;93788.63;2027519;70;20205;-74
2023/10/01 07:17:23;;;;;;;45.50;20.90;;;;;;;15.59;69.35;93790.72;2026853;70;20165;-74
2023/10/01 07:19:59;;;;;;;44.95;20.13;;;;;;;15.79;67.75;93794.03;2027142;70;20145;-75
2023/10/01 07:22:38;;;;;;;43.63;18.75;;;;;;;15.86;68.29;93790.19;2027433;70;20574;-74
2023/10/01 07:25:05;;;;;;;35.38;15.30;;;;;;;16.03;67.19;93792.59;2027455;70;20638;-73
2023/10/01 07:27:30;;;;;;;34.53;14.50;;;;;;;15.92;68.34;93793.38;2027138;70;20197;-74
2023/10/01 07:29:57;;;;;;;54.38;23.35;;;;;;;15.58;68.76;93794.88;2025961;70;20153;-73
2023/10/01 07:32:24;;;;;;;63.00;26.45;;;;;;;15.77;68.29;93793.91;2026791;70;20164;-74
2023/10/01 07:34:55;;;;;;;54.40;22.33;;;;;;;15.84;68.23;93796.47;2026834;70;20165;-73
2023/10/01 07:37:31;;;;;;;67.80;30.00;;;;;;;15.99;68.00;93795.22;2026877;70;20212;-74
2023/10/01 07:40:08;;;;;;;61.53;28.23;;;;;;;15.95;68.63;93790.06;2027168;70;20156;-74
2023/10/01 07:42:54;;;;;;;63.25;27.67;;;;;;;16.39;67.91;93784.69;2026642;70;20226;-74
2023/10/01 07:45:20;;;;;;;58.53;24.60;;;;;;;16.60;65.62;93780.91;2026593;70;20167;-74
2023/10/01 07:47:48;;;;;;;38.17;17.08;;;;;;;16.60;66.87;93778.78;2026616;70;20161;-74
2023/10/01 07:50:14;;;;;;;39.10;17.85;;;;;;;16.92;66.90;93782.72;2026262;70;20157;-75
2023/10/01 07:52:44;;;;;;;33.08;15.98;;;;;;;17.44;65.50;93789.75;2026484;70;20545;-75
2023/10/01 07:58:22;;;;;;;38.45;16.27;;;;;;;17.91;63.61;93782.91;2026110;70;20236;-75
2023/10/01 08:00:43;;;;;;;41.03;16.75;;;;;;;18.04;62.53;93782.13;2026147;70;20163;-76
2023/10/01 08:05:48;;;;;;;37.53;17.25;;;;;;;18.43;61.41;93790.50;2026245;70;20610;-73
2023/10/01 08:08:15;;;;;;;38.55;16.85;;;;;;;18.67;60.72;93793.78;2026318;70;20160;-73
2023/10/01 08:10:40;;;;;;;38.60;17.38;;;;;;;18.72;60.04;93786.19;2026326;70;20241;-73
2023/10/01 08:13:07;;;;;;;42.63;16.92;;;;;;;19.10;59.70;93786.53;2025888;71;20169;-74
2023/10/01 08:15:45;;;;;;;40.90;17.70;;;;;;;19.32;59.38;93789.69;2026606;70;20153;-72
2023/10/01 08:18:34;;;;;;;36.90;17.27;;;;;;;19.32;60.07;93781.13;2026648;70;20510;-72
2023/10/01 08:21:15;;;;;;;36.60;17.13;;;;;;;19.86;57.90;93791.41;2026589;70;20129;-72
2023/10/01 08:23:48;;;;;;;39.35;17.50;;;;;;;20.07;59.70;93787.31;2026657;70;20256;-71
2023/10/01 08:29:03;;;;;;;42.85;18.48;;;;;;;20.14;55.05;93779.72;2026667;70;20160;-74
2023/10/01 08:34:28;;;;;;;39.25;18.13;;;;;;;20.93;53.46;93777.25;2019021;71;20149;-72
2023/10/01 08:36:58;;;;;;;36.33;17.17;;;;;;;20.82;53.16;93763.94;2018619;71;20202;-76
2023/10/01 08:39:34;;;;;;;39.33;18.40;;;;;;;21.01;53.41;93765.41;2018722;71;20823;-75
2023/10/01 08:42:10;;;;;;;38.97;17.60;;;;;;;21.17;51.65;93771.03;2018903;71;20182;-74
2023/10/01 08:44:54;;;;;;;38.17;17.83;;;;;;;21.19;51.60;93771.81;2018563;71;20393;-74
2023/10/01 08:47:45;;;;;;;36.72;18.60;;;;;;;21.67;52.29;93769.34;2018737;71;20157;-73
2023/10/01 08:52:58;;;;;;;37.45;17.90;;;;;;;21.65;51.06;93768.53;2018547;71;20180;-76
2023/10/01 08:55:35;;;;;;;38.00;17.90;;;;;;;21.66;49.47;93767.13;2018703;71;20156;-73
2023/10/01 09:00:56;;;;;;;35.72;16.83;;;;;;;21.97;49.18;93763.97;2018830;71;20142;-73
2023/10/01 09:03:30;;;;;;;37.65;17.85;;;;;;;22.75;48.14;93775.19;2018774;71;20153;-74
2023/10/01 09:06:09;;;;;;;36.22;17.38;;;;;;;23.13;47.56;93766.38;2019131;71;20150;-76
2023/10/01 09:08:43;;;;;;;37.72;16.63;;;;;;;22.93;47.09;93781.56;2018788;71;20200;-75
2023/10/01 09:11:14;;;;;;;35.28;17.52;;;;;;;22.64;47.09;93776.28;2026012;71;20197;-77
2023/10/01 09:14:14;;;;;;;34.65;16.83;;;;;;;23.42;46.65;93770.84;2025865;70;20149;-74
2023/10/01 09:16:42;;;;;;;33.80;15.77;;;;;;;23.53;46.62;93764.72;2026371;70;20641;-73
2023/10/01 09:20:06;;;;;;;33.90;15.82;;;;;;;23.81;46.79;93761.94;2026542;70;20637;-75
2023/10/01 09:25:14;;;;;;;30.23;14.45;;;;;;;24.36;46.02;93754.06;2026552;70;20153;-73
2023/10/01 09:28:04;;;;;;;29.13;14.77;;;;;;;25.04;45.68;93754.34;2026323;70;20145;-74
2023/10/01 09:30:35;;;;;;;32.28;15.40;;;;;;;25.46;45.80;93764.66;2026183;70;20157;-74
2023/10/01 09:33:05;;;;;;;30.30;15.57;;;;;;;25.47;45.27;93766.84;2025063;70;20157;-74
2023/10/01 09:35:49;;;;;;;41.50;14.80;;;;;;;25.84;44.13;93753.22;2026217;70;20161;-74
2023/10/01 09:38:19;;;;;;;29.52;15.02;;;;;;;25.54;43.95;93756.19;2026523;70;20609;-74
2023/10/01 09:40:46;;;;;;;29.98;15.43;;;;;;;25.53;43.88;93755.47;2026302;70;20144;-76
2023/10/01 09:43:19;;;;;;;28.13;14.85;;;;;;;26.20;41.51;93756.09;2026127;70;20726;-74
2023/10/01 09:45:47;;;;;;;29.30;14.32;;;;;;;25.98;42.61;93752.78;2026388;70;20252;-74
2023/10/01 09:48:30;;;;;;;29.13;14.43;;;;;;;26.79;41.67;93762.94;2026377;70;20149;-74
2023/10/01 09:51:11;;;;;;;26.98;14.05;;;;;;;27.30;40.38;93758.00;2026073;71;20171;-74
2023/10/01 09:53:51;;;;;;;29.08;14.68;;;;;;;27.70;38.98;93757.09;2026412;70;20153;-75
2023/10/01 09:56:29;;;;;;;27.67;14.98;;;;;;;27.90;39.96;93762.44;2026375;70;20175;-75
2023/10/01 09:59:07;;;;;;;28.40;14.95;;;;;;;27.73;39.18;93763.69;2026315;70;20181;-75
2023/10/01 10:01:36;;;;;;;26.05;14.38;;;;;;;27.79;38.34;93766.66;2026307;71;20181;-76
2023/10/01 10:04:07;;;;;;;28.70;15.40;;;;;;;28.33;37.59;93768.75;2026342;70;20177;-76
2023/10/01 10:06:34;;;;;;;27.33;14.60;;;;;;;26.61;39.12;93765.53;2026206;70;20189;-75
2023/10/01 10:09:06;;;;;;;29.05;15.05;;;;;;;27.78;37.24;93759.41;2025869;70;20136;-76
2023/10/01 10:11:40;;;;;;;28.65;15.15;;;;;;;28.45;37.21;93768.88;2026388;71;20164;-75
2023/10/01 10:14:27;;;;;;;26.05;14.60;;;;;;;28.70;37.46;93754.66;2026454;70;20675;-75
2023/10/01 10:17:18;;;;;;;26.83;14.13;;;;;;;30.37;36.07;93752.81;2026518;70;20157;-75
2023/10/01 10:20:22;;;;;;;25.95;14.73;;;;;;;30.28;34.79;93751.34;2025985;71;20159;-77
2023/10/01 10:23:13;;;;;;;28.52;15.15;;;;;;;29.03;35.79;93752.78;2026420;70;20180;-83
2023/10/01 10:25:41;;;;;;;28.13;13.90;;;;;;;30.76;34.13;93747.13;2024796;70;20169;-74
2023/10/01 10:28:09;;;;;;;27.92;14.70;;;;;;;31.23;34.60;93742.03;2024915;70;20145;-79
2023/10/01 10:30:41;;;;;;;25.48;14.38;;;;;;;31.62;32.83;93750.75;2025562;70;20697;-75
2023/10/01 10:33:14;;;;;;;28.25;15.68;;;;;;;31.50;31.63;93745.69;2024754;70;20164;-74
2023/10/01 10:35:52;;;;;;;26.20;15.00;;;;;;;31.40;32.42;93754.44;2024958;70;20152;-73
2023/10/01 10:38:52;;;;;;;28.25;16.52;;;;;;;30.55;31.99;93743.44;2024998;70;20632;-74
2023/10/01 10:41:19;;;;;;;29.05;16.10;;;;;;;32.23;31.58;93738.94;2025189;70;20165;-72
2023/10/01 10:44:08;;;;;;;29.50;15.60;;;;;;;33.53;30.35;93751.91;2024546;70;20159;-72
2023/10/01 10:47:02;;;;;;;25.65;15.43;;;;;;;33.85;29.21;93745.03;2024484;70;20240;-73
2023/10/01 10:49:52;;;;;;;27.05;15.52;;;;;;;32.99;28.96;93748.00;2027684;70;20618;-73
2023/10/01 10:52:32;;;;;;;29.05;16.38;;;;;;;34.17;28.03;93742.50;2027950;70;20224;-74
2023/10/01 10:55:17;;;;;;;28.85;15.80;;;;;;;33.45;28.04;93749.09;2027170;70;20268;-76
2023/10/01 10:57:51;;;;;;;27.83;15.30;;;;;;;36.27;27.65;93742.84;2024924;70;20165;-77
2023/10/01 11:00:24;;;;;;;29.70;16.25;;;;;;;35.92;27.70;93736.19;2025569;71;20244;-75
2023/10/01 11:02:56;;;;;;;25.65;15.70;;;;;;;36.76;27.56;93738.91;2025893;70;20241;-77
2023/10/01 11:05:49;;;;;;;24.73;15.05;;;;;;;36.88;26.62;93734.94;2025809;70;20187;-75
2023/10/01 11:08:27;;;;;;;26.58;15.75;;;;;;;37.80;26.29;93744.47;2025236;71;20157;-75
2023/10/01 11:10:55;;;;;;;27.73;16.35;;;;;;;37.54;24.68;93737.81;2025789;70;20176;-75
2023/10/01 11:13:42;;;;;;;27.23;16.05;;;;;;;35.64;26.14;93726.44;2025683;70;20188;-77
2023/10/01 11:16:14;;;;;;;24.90;15.95;;;;;;;37.36;24.85;93738.25;2025872;70;20510;-75
2023/10/01 11:18:49;;;;;;;;;;;;;;;36.40;25.90;93720.59;2026444;70;20552;-79
2023/10/01 11:21:24;;;;;;;25.90;15.82;;;;;;;35.46;26.79;93721.66;2026246;70;20482;-76
2023/10/01 11:23:53;;;;;;;24.90;15.90;;;;;;;40.45;23.87;93721.47;2026179;70;20153;-76
2023/10/01 11:26:29;;;;;;;25.00;15.68;;;;;;;36.57;25.27;93703.38;2026345;70;20157;-74
2023/10/01 11:29:01;;;;;;;25.23;15.55;;;;;;;40.56;22.75;93725.50;2026173;70;20205;-75
2023/10/01 11:31:31;;;;;;;26.85;16.58;;;;;;;39.78;23.37;93715.75;2026295;70;20156;-76
2023/10/01 11:33:58;;;;;;;23.00;15.55;;;;;;;39.31;22.98;93710.69;2026195;70;20196;-75
2023/10/01 11:36:23;;;;;;;25.17;16.20;;;;;;;38.39;24.45;93711.28;2026064;70;20229;-75
2023/10/01 11:38:50;;;;;;;28.17;16.50;;;;;;;39.58;22.86;93710.53;2026307;70;20198;-76
2023/10/01 11:41:18;;;;;;;26.42;16.63;;;;;;;41.59;21.03;93711.13;2026402;70;20620;-76
2023/10/01 11:44:00;;;;;;;28.17;18.05;;;;;;;40.92;23.01;93698.31;2026331;70;20176;-76
2023/10/01 11:46:34;;;;;;;27.75;17.90;;;;;;;39.98;21.65;93698.84;2026438;70;20161;-76
2023/10/01 11:49:06;;;;;;;27.05;17.73;;;;;;;43.21;21.80;93700.94;2026605;70;20205;-77
2023/10/01 11:51:36;;;;;;;;;;;;;;;44.31;19.31;93701.34;2026688;70;20176;-77
2023/10/01 11:54:09;;;;;;;24.27;16.13;;;;;;;42.75;19.30;93701.63;2026474;70;20126;-77
2023/10/01 11:56:43;;;;;;;24.50;16.52;;;;;;;45.86;20.14;93699.38;2026356;70;20125;-74
2023/10/01 11:59:17;;;;;;;28.48;17.60;;;;;;;42.45;21.77;93689.66;2026563;70;20200;-75
2023/10/01 12:01:50;;;;;;;26.27;17.33;;;;;;;44.22;19.24;93691.44;2026459;70;20141;-76
2023/10/01 12:04:24;;;;;;;28.35;17.73;;;;;;;45.15;18.37;93690.91;2026589;70;20628;-76
2023/10/01 12:06:56;;;;;;;30.95;18.50;;;;;;;43.80;19.00;93680.22;2026570;70;20137;-75
2023/10/01 12:09:24;;;;;;;27.52;17.85;;;;;;;44.53;19.38;93682.34;2026351;70;20204;-76
2023/10/01 12:12:03;;;;;;;27.42;17.75;;;;;;;45.86;19.99;93671.91;2026439;70;20141;-76
2023/10/01 12:14:32;;;;;;;26.45;18.17;;;;;;;47.25;17.54;93675.94;2026422;70;20168;-76
2023/10/01 12:17:01;;;;;;;29.50;18.23;;;;;;;43.70;18.75;93657.75;2026466;70;20236;-76
2023/10/01 12:19:29;;;;;;;31.52;19.15;;;;;;;45.42;18.19;93655.16;2026079;71;20161;-78
2023/10/01 12:22:09;;;;;;;29.77;19.50;;;;;;;42.63;20.09;93658.53;2026455;70;20169;-76
2023/10/01 12:24:39;;;;;;;30.30;19.83;;;;;;;43.67;18.93;93658.69;2026647;70;20141;-78
2023/10/01 12:27:07;;;;;;;30.27;20.63;;;;;;;46.52;18.14;93653.78;2026483;70;20161;-78